This is the latest recevied weather packets stored in our database for station/object GW1476. If no packets are shown the sender has not sent any weather packets the latest 10 day(s).
| Time | Temp. | Humidity | Pressure | Rain* | Wind** | Luminosity | Snow |
|---|---|---|---|---|---|---|---|
| 1777158743 | 24.44° C | 65% | 1011.8 hPa | 0 mm | - | - | - |
| 1777157679 | 23.33° C | 67% | 1011.8 hPa | 0 mm | - | - | - |
| 1777150815 | 24.44° C | 68% | 1011.5 hPa | 0 mm | - | - | - |
| 1777149388 | 24.44° C | 70% | 1011.5 hPa | 0 mm | - | - | - |
| 1777149020 | 25.56° C | 67% | 1011.8 hPa | 0 mm | - | - | - |
| 1777148655 | 25° C | 70% | 1011.8 hPa | 0 mm | - | - | - |
| 1777147975 | 24.44° C | 73% | 1011.8 hPa | 0 mm | - | - | - |
| 1777147250 | 23.33° C | 77% | 1011.8 hPa | 0 mm | - | - | - |
| 1777145776 | 23.33° C | 75% | 1012.1 hPa | 0 mm | - | - | - |
| 1777143993 | 22.78° C | 78% | 1012.5 hPa | 0 mm | - | - | - |
| 1777143284 | 22.78° C | 77% | 1012.5 hPa | 0 mm | - | - | - |
| 1777142900 | 22.78° C | 78% | 1012.5 hPa | 0 mm | - | - | - |
| 1777140042 | 22.22° C | 79% | 1012.5 hPa | 0 mm | - | - | - |
| 1777138610 | 21.67° C | 81% | 1012.5 hPa | 0 mm | - | - | - |
| 1777132457 | 20.56° C | 89% | 1013.2 hPa | 0 mm | - | - | - |
| 1777132131 | 20.56° C | 89% | 1013.2 hPa | 0 mm | - | - | - |
| 1777131375 | 20° C | 93% | 1013.2 hPa | 0 mm | - | - | - |
| 1777129214 | 18.33° C | 98% | 1013.2 hPa | 0 mm | - | - | - |
| 1777128501 | 18.89° C | 97% | 1013.2 hPa | 0 mm | - | - | - |
| 1777127450 | 17.78° C | 98% | 1012.8 hPa | 0 mm | - | - | - |
| 1777123843 | 16.11° C | 99% | 1012.8 hPa | 0 mm | - | - | - |
| 1777123476 | 16.11° C | 98% | 1012.8 hPa | 0 mm | - | - | - |
| 1777121660 | 15.56° C | 99% | 1012.8 hPa | 0 mm | - | - | - |
| 1777112681 | 13.33° C | 99% | 1011.5 hPa | 0 mm | - | - | - |
| 1777105103 | 13.33° C | 99% | 1011.5 hPa | 0 mm | - | - | - |
* Rain since midnight (hover to see other rain measurements)
** Current wind speed in m/s (hover to see current wind gust speed)